Eden, New York
Current Conditions -  °F | °C
As of 3:53 AM on Friday 31 Oct 2014 (Local Time) from KDKK Reporting Station
Broken Clouds Broken Clouds  
Wind Chill: 42°   Ceiling: 11000
Heat Index: 44°   Visibility: 10mi
Dew Point: 38°   Wind: 5mph
Humidity: 79%   Direction: 200°SSW
Pressure: 29.97"   Gusts: NA
Location:  42.65°N, 78.9°W
Report Text: KDKK 310753Z AUTO 20004KT 10SM SCT060 BKN110 07/03 A2997 RMK AO2 SLP153 T00670033
Loading
Personal Weather Stations






























Interactive Weather Map
Tropical Storm Tracking
New forecast layout! Learn more

10-Day Weather Forecast

Advertisements
Track Severe Weather on mobile